Time;durP1;ratioP1;P1;durP2;ratioP2;P2;SDS_P1;SDS_P2;PMS_P1;PMS_P2;Temp;Humidity;BMP_temperature;BMP_pressure;BME280_temperature;BME280_humidity;BME280_pressure;Samples;Min_cycle;Max_cycle;Signal;HPM_P1;HPM_P2
2023/02/13 00:02:22;;;;;;;;;;;;;;;8.20;100.00;103724.59;5032966;28;20135;-67
2023/02/13 00:04:49;;;;;;;;;;;;;;;8.20;100.00;103722.00;5029757;28;19925;-67
2023/02/13 00:07:15;;;;;;;;;;;;;;;8.19;100.00;103726.34;5023139;28;19925;-67
2023/02/13 00:09:41;;;;;;;;;;;;;;;8.17;100.00;103716.88;5040320;28;19925;-69
2023/02/13 00:12:08;;;;;;;;;;;;;;;8.16;100.00;103715.19;5036392;28;20391;-66
2023/02/13 00:14:34;;;;;;;;;;;;;;;8.15;100.00;103714.31;5032006;28;19921;-66
2023/02/13 00:17:01;;;;;;;;;;;;;;;8.16;100.00;103708.19;5033828;28;19925;-66
2023/02/13 00:19:27;;;;;;;;;;;;;;;8.15;100.00;103711.69;5032506;28;19924;-66
2023/02/13 00:21:54;;;;;;;;;;;;;;;8.15;100.00;103703.00;5039030;28;19929;-66
2023/02/13 00:24:20;;;;;;;;;;;;;;;8.11;100.00;103705.75;5035045;28;19924;-66
2023/02/13 00:26:47;;;;;;;;;;;;;;;8.12;100.00;103702.22;5023863;28;19979;-66
2023/02/13 00:29:13;;;;;;;;;;;;;;;8.09;100.00;103706.69;5041961;28;19924;-66
2023/02/13 00:31:39;;;;;;;;;;;;;;;8.04;100.00;103698.22;5030276;28;19979;-66
2023/02/13 00:34:06;;;;;;;;;;;;;;;8.05;100.00;103700.75;5026873;28;19936;-66
2023/02/13 00:36:32;;;;;;;;;;;;;;;8.04;100.00;103698.22;5024470;28;20601;-67
2023/02/13 00:38:58;;;;;;;;;;;;;;;8.04;100.00;103688.59;5035933;28;20385;-66
2023/02/13 00:41:25;;;;;;;;;;;;;;;8.03;100.00;103694.72;5034354;28;19932;-66
2023/02/13 00:43:51;;;;;;;;;;;;;;;8.03;100.00;103692.09;5021534;28;19956;-67
2023/02/13 00:46:17;;;;;;;;;;;;;;;8.04;100.00;103693.81;5039816;28;19996;-66
2023/02/13 00:48:44;;;;;;;;;;;;;;;8.04;100.00;103698.22;5027320;28;19925;-66
2023/02/13 00:51:11;;;;;;;;;;;;;;;8.06;100.00;103701.63;5038160;28;19925;-66
2023/02/13 00:53:38;;;;;;;;;;;;;;;8.06;100.00;103699.00;5028823;28;19928;-66
2023/02/13 00:56:05;;;;;;;;;;;;;;;8.06;100.00;103707.69;5032910;28;19931;-66
2023/02/13 00:58:32;;;;;;;;;;;;;;;8.02;100.00;103698.25;5031924;28;20274;-66
2023/02/13 01:00:58;;;;;;;;;;;;;;;8.01;100.00;103696.53;5018622;28;19928;-66
2023/02/13 01:03:25;;;;;;;;;;;;;;;8.01;100.00;103695.69;5038037;28;19943;-66
2023/02/13 01:05:52;;;;;;;;;;;;;;;8.01;100.00;103703.53;5036373;28;19963;-66
2023/02/13 01:08:19;;;;;;;;;;;;;;;7.99;100.00;103697.53;5038527;28;19928;-66
2023/02/13 01:10:46;;;;;;;;;;;;;;;7.98;100.00;103694.06;5031646;28;19925;-67
2023/02/13 01:13:13;;;;;;;;;;;;;;;7.97;100.00;103699.34;5026511;28;19924;-68
2023/02/13 01:15:39;;;;;;;;;;;;;;;7.97;100.00;103702.81;5026465;28;20774;-67
2023/02/13 01:18:06;;;;;;;;;;;;;;;7.98;100.00;103695.81;5018165;28;19925;-66
2023/02/13 01:20:32;;;;;;;;;;;;;;;7.99;100.00;103695.75;5037337;28;19929;-67
2023/02/13 01:22:59;;;;;;;;;;;;;;;7.99;100.00;103700.13;5026230;28;19968;-67
2023/02/13 01:25:26;;;;;;;;;;;;;;;7.99;100.00;103695.75;5032516;28;20130;-67
2023/02/13 01:27:52;;;;;;;;;;;;;;;7.97;100.00;103699.34;5020213;28;19998;-67
2023/02/13 01:30:19;;;;;;;;;;;;;;;7.99;100.00;103694.91;5034275;28;19936;-66
2023/02/13 01:32:46;;;;;;;;;;;;;;;8.00;100.00;103687.00;5034618;28;19925;-67
2023/02/13 01:35:13;;;;;;;;;;;;;;;7.99;100.00;103690.53;5032188;28;19921;-67
2023/02/13 01:37:40;;;;;;;;;;;;;;;7.98;100.00;103696.69;5034889;28;19931;-66
2023/02/13 01:40:09;;;;;;;;;;;;;;;7.99;100.00;103687.06;5033196;28;19920;-66
2023/02/13 01:42:35;;;;;;;;;;;;;;;7.94;100.00;103689.88;5031538;28;19935;-66
2023/02/13 01:45:21;;;;;;;;;;;;;;;7.96;100.00;103692.41;5041073;28;19921;-67
2023/02/13 01:47:49;;;;;;;;;;;;;;;7.93;100.00;103686.38;5033298;28;19931;-66
2023/02/13 01:50:19;;;;;;;;;;;;;;;7.91;100.00;103687.34;5044100;28;20004;-66
2023/02/13 01:52:58;;;;;;;;;;;;;;;7.91;100.00;103674.28;5028294;28;20391;-66
2023/02/13 01:55:25;;;;;;;;;;;;;;;7.92;100.00;103673.41;5031422;28;19944;-66
2023/02/13 01:57:56;;;;;;;;;;;;;;;7.93;100.00;103677.69;5028336;28;19933;-66
2023/02/13 02:00:22;;;;;;;;;;;;;;;7.92;100.00;103673.41;5038921;28;19924;-65
2023/02/13 02:02:56;;;;;;;;;;;;;;;7.95;100.00;103675.03;5036362;28;19928;-64
2023/02/13 02:05:25;;;;;;;;;;;;;;;7.98;100.00;103683.59;5044427;28;19921;-65
2023/02/13 02:07:53;;;;;;;;;;;;;;;8.00;100.00;103675.72;5033347;28;19973;-66
2023/02/13 02:10:20;;;;;;;;;;;;;;;8.01;100.00;103682.63;5024470;28;19932;-66
2023/02/13 02:12:49;;;;;;;;;;;;;;;7.99;100.00;103672.22;5043983;28;19924;-64
2023/02/13 02:15:15;;;;;;;;;;;;;;;8.00;100.00;103681.78;5027965;28;19927;-65
2023/02/13 02:17:42;;;;;;;;;;;;;;;8.02;100.00;103671.28;5042368;28;19932;-65
2023/02/13 02:20:17;;;;;;;;;;;;;;;8.02;100.00;103677.34;5024629;28;20427;-65
2023/02/13 02:23:02;;;;;;;;;;;;;;;8.02;100.00;103679.97;5020620;28;20676;-65
2023/02/13 02:25:41;;;;;;;;;;;;;;;8.02;100.00;103672.13;5027981;28;19939;-64
2023/02/13 02:28:26;;;;;;;;;;;;;;;8.01;100.00;103672.16;5028581;28;19921;-65
2023/02/13 02:31:12;;;;;;;;;;;;;;;8.03;100.00;103671.19;5018856;28;20894;-66
2023/02/13 02:33:57;;;;;;;;;;;;;;;8.04;100.00;103670.28;5041165;28;20641;-66
2023/02/13 02:36:42;;;;;;;;;;;;;;;8.03;100.00;103667.72;5030701;28;19927;-65
2023/02/13 02:39:44;;;;;;;;;;;;;;;8.06;100.00;103667.63;5029653;28;19925;-64
2023/02/13 02:42:10;;;;;;;;;;;;;;;8.05;100.00;103660.69;4958144;28;19926;-65
2023/02/13 02:44:48;;;;;;;;;;;;;;;8.06;100.00;103663.25;4963301;28;19968;-65
2023/02/13 02:50:13;;;;;;;;;;;;;;;8.05;100.00;103666.75;4947426;28;19926;-65
2023/02/13 02:52:49;;;;;;;;;;;;;;;8.05;100.00;103666.75;4956786;28;20110;-66
2023/02/13 02:55:37;;;;;;;;;;;;;;;8.06;100.00;103668.47;4962456;28;19926;-65
2023/02/13 03:06:58;;;;;;;;;;;;;;;8.06;100.00;103659.78;4942495;28;19927;-66
2023/02/13 03:15:03;;;;;;;;;;;;;;;8.05;100.00;103658.91;4967773;28;20536;-66
2023/02/13 03:22:17;;;;;;;;;;;;;;;8.02;100.00;103660.81;5034990;28;20015;-64
2023/02/13 03:23:43;;;;;;;;;;;;;;;8.03;100.00;103657.28;5035341;28;20100;-64
2023/02/13 03:26:13;;;;;;;;;;;;;;;8.05;100.00;103660.69;5036542;28;19925;-65
2023/02/13 03:31:37;;;;;;;;;;;;;;;8.06;100.00;103663.25;5030553;28;19921;-64
2023/02/13 03:34:05;;;;;;;;;;;;;;;8.07;100.00;103664.94;5041153;28;20272;-64
2023/02/13 03:39:43;;;;;;;;;;;;;;;8.08;100.00;103668.41;5037078;28;20387;-65
2023/02/13 03:42:14;;;;;;;;;;;;;;;8.07;100.00;103666.69;5020440;28;20144;-64
2023/02/13 03:45:51;;;;;;;;;;;;;;;8.06;100.00;103665.84;5030789;28;20266;-63
2023/02/13 03:47:35;;;;;;;;;;;;;;;8.06;100.00;103670.25;5019457;28;19921;-63
2023/02/13 03:50:04;;;;;;;;;;;;;;;8.05;100.00;103668.53;5033379;28;19924;-66
2023/02/13 03:52:40;;;;;;;;;;;;;;;8.07;100.00;103666.69;5031070;28;19925;-66
2023/02/13 04:00:49;;;;;;;;;;;;;;;8.07;100.00;103669.31;5043927;28;19921;-66
2023/02/13 04:03:27;;;;;;;;;;;;;;;8.07;100.00;103666.69;5037728;28;20093;-65
2023/02/13 04:06:01;;;;;;;;;;;;;;;8.05;100.00;103671.13;5034887;28;19920;-66
2023/02/13 04:08:27;;;;;;;;;;;;;;;8.05;100.00;103671.13;5037295;28;19927;-68
2023/02/13 04:11:02;;;;;;;;;;;;;;;8.06;100.00;103671.09;5029539;28;19921;-66
2023/02/13 04:13:28;;;;;;;;;;;;;;;8.05;100.00;103671.97;5039209;28;19925;-65
2023/02/13 04:15:57;;;;;;;;;;;;;;;8.03;100.00;103675.56;5030222;28;19921;-65
2023/02/13 04:18:31;;;;;;;;;;;;;;;8.04;100.00;103672.06;5030162;28;19921;-65
2023/02/13 04:21:02;;;;;;;;;;;;;;;8.01;100.00;103667.78;5035617;28;19925;-66
2023/02/13 04:23:29;;;;;;;;;;;;;;;8.01;100.00;103670.41;5032357;28;20180;-66
2023/02/13 04:25:55;;;;;;;;;;;;;;;7.99;100.00;103672.22;5033472;28;20015;-66
2023/02/13 04:28:22;;;;;;;;;;;;;;;8.00;100.00;103675.72;5038199;28;19924;-66
2023/02/13 04:30:49;;;;;;;;;;;;;;;8.01;100.00;103667.78;5040765;28;19928;-66
2023/02/13 04:33:15;;;;;;;;;;;;;;;8.02;100.00;103672.13;5030801;28;19925;-66
2023/02/13 04:35:42;;;;;;;;;;;;;;;8.03;100.00;103663.34;5041185;28;19925;-66
2023/02/13 04:38:08;;;;;;;;;;;;;;;8.03;100.00;103665.97;5020935;28;19924;-66
2023/02/13 04:40:34;;;;;;;;;;;;;;;8.03;100.00;103671.19;5028672;28;20370;-65
2023/02/13 04:43:01;;;;;;;;;;;;;;;8.01;100.00;103669.56;5038514;28;19924;-65
2023/02/13 04:45:27;;;;;;;;;;;;;;;8.04;100.00;103674.69;5029218;28;20003;-66
2023/02/13 04:47:54;;;;;;;;;;;;;;;8.03;100.00;103675.56;5032783;28;19959;-66
2023/02/13 04:50:21;;;;;;;;;;;;;;;8.04;100.00;103669.44;5036921;28;19932;-66
2023/02/13 04:52:51;;;;;;;;;;;;;;;8.00;100.00;103666.09;5037376;28;19955;-65
2023/02/13 04:55:17;;;;;;;;;;;;;;;8.02;100.00;103674.72;5027714;28;19925;-66
2023/02/13 04:57:44;;;;;;;;;;;;;;;8.01;100.00;103669.56;5017853;28;20076;-66
2023/02/13 05:00:10;;;;;;;;;;;;;;;8.00;100.00;103666.09;5038314;28;19929;-66
2023/02/13 05:02:37;;;;;;;;;;;;;;;7.99;100.00;103667.00;5033586;28;19921;-65
2023/02/13 05:05:05;;;;;;;;;;;;;;;7.99;100.00;103664.38;5037599;28;19921;-66
2023/02/13 05:07:31;;;;;;;;;;;;;;;7.99;100.00;103656.53;5029847;28;19925;-65
2023/02/13 05:09:57;;;;;;;;;;;;;;;8.01;100.00;103656.50;5036028;28;19925;-66
2023/02/13 05:12:24;;;;;;;;;;;;;;;8.01;100.00;103654.72;5033519;28;19931;-66
2023/02/13 05:14:50;;;;;;;;;;;;;;;8.01;100.00;103644.25;5035881;28;19925;-66
2023/02/13 05:17:16;;;;;;;;;;;;;;;8.01;100.00;103654.72;5036750;28;19925;-66
2023/02/13 05:19:43;;;;;;;;;;;;;;;8.02;100.00;103648.59;5028785;28;19921;-65
2023/02/13 05:24:54;;;;;;;;;;;;;;;7.98;100.00;103644.41;5039746;28;20396;-66
2023/02/13 05:27:20;;;;;;;;;;;;;;;7.97;100.00;103644.44;5041450;28;19924;-66
2023/02/13 05:29:47;;;;;;;;;;;;;;;7.95;100.00;103636.66;5030646;28;19925;-66
2023/02/13 05:32:13;;;;;;;;;;;;;;;7.95;100.00;103641.88;5039026;28;20392;-66
2023/02/13 05:34:39;;;;;;;;;;;;;;;7.93;100.00;103638.50;5036816;28;19925;-66
2023/02/13 05:37:06;;;;;;;;;;;;;;;7.93;100.00;103636.72;5019630;28;19921;-66
2023/02/13 05:39:32;;;;;;;;;;;;;;;7.90;100.00;103631.63;5011751;28;20114;-66
2023/02/13 05:41:59;;;;;;;;;;;;;;;7.89;100.00;103632.53;5026231;28;20072;-66
2023/02/13 05:44:25;;;;;;;;;;;;;;;7.90;100.00;103643.84;5032768;28;19928;-66
2023/02/13 05:46:52;;;;;;;;;;;;;;;7.89;100.00;103635.13;5023486;28;20008;-67
2023/02/13 05:49:18;;;;;;;;;;;;;;;7.90;100.00;103634.25;5033082;28;19925;-66
2023/02/13 05:51:45;;;;;;;;;;;;;;;7.89;100.00;103634.28;5036895;28;19964;-66
2023/02/13 05:54:12;;;;;;;;;;;;;;;7.89;100.00;103637.75;5029557;28;20459;-66
2023/02/13 05:56:38;;;;;;;;;;;;;;;7.85;100.00;103643.16;5030167;28;19925;-66
2023/02/13 05:59:04;;;;;;;;;;;;;;;7.86;100.00;103640.50;5025576;28;19921;-66
2023/02/13 06:01:31;;;;;;;;;;;;;;;7.88;100.00;103638.69;5038555;28;19931;-66
2023/02/13 06:03:57;;;;;;;;;;;;;;;7.88;100.00;103638.69;5034932;28;20352;-66
2023/02/13 06:06:26;;;;;;;;;;;;;;;7.88;100.00;103641.28;5027736;28;20341;-66
2023/02/13 06:08:53;;;;;;;;;;;;;;;7.93;100.00;103641.09;5043038;28;19925;-66
2023/02/13 06:11:19;;;;;;;;;;;;;;;7.92;100.00;103640.25;5037905;28;19924;-66
2023/02/13 06:13:45;;;;;;;;;;;;;;;7.93;100.00;103641.09;5032330;28;20233;-66
2023/02/13 06:16:12;;;;;;;;;;;;;;;7.92;100.00;103640.25;5016978;28;20436;-66
2023/02/13 06:18:38;;;;;;;;;;;;;;;7.92;100.00;103635.03;5033368;28;19928;-67
2023/02/13 06:21:05;;;;;;;;;;;;;;;7.91;100.00;103635.94;5032227;28;20361;-66
2023/02/13 06:23:32;;;;;;;;;;;;;;;7.94;100.00;103634.97;5034263;28;20289;-66
2023/02/13 06:26:02;;;;;;;;;;;;;;;7.92;100.00;103632.41;5033645;28;19931;-66
2023/02/13 06:28:29;;;;;;;;;;;;;;;7.92;100.00;103635.03;5026615;28;19920;-66
2023/02/13 06:30:55;;;;;;;;;;;;;;;7.95;100.00;103641.88;5036561;28;19924;-66
2023/02/13 06:33:22;;;;;;;;;;;;;;;7.99;100.00;103640.00;5038704;28;20015;-66
2023/02/13 06:35:48;;;;;;;;;;;;;;;7.99;100.00;103635.63;5036578;28;19944;-66
2023/02/13 06:38:17;;;;;;;;;;;;;;;7.99;100.00;103635.63;5021548;28;19948;-66
2023/02/13 06:40:47;;;;;;;;;;;;;;;8.00;100.00;103634.72;5037386;28;20183;-66
2023/02/13 06:43:14;;;;;;;;;;;;;;;7.99;100.00;103640.84;5030431;28;19925;-66
2023/02/13 06:45:40;;;;;;;;;;;;;;;8.00;100.00;103641.72;5026756;28;20357;-66
2023/02/13 06:48:07;;;;;;;;;;;;;;;8.00;100.00;103642.56;5024418;28;20326;-67
2023/02/13 06:50:33;;;;;;;;;;;;;;;8.03;100.00;103645.06;5026412;28;20012;-66
2023/02/13 06:53:00;;;;;;;;;;;;;;;8.05;100.00;103648.44;5041864;28;20714;-66
2023/02/13 06:55:26;;;;;;;;;;;;;;;8.05;100.00;103647.63;5025465;28;20854;-66
2023/02/13 06:57:53;;;;;;;;;;;;;;;8.07;100.00;103651.00;5045977;28;20395;-67
2023/02/13 07:00:19;;;;;;;;;;;;;;;8.07;100.00;103657.09;5034969;28;19980;-67
2023/02/13 07:02:46;;;;;;;;;;;;;;;8.08;100.00;103647.50;5026651;28;20007;-67
2023/02/13 07:05:13;;;;;;;;;;;;;;;8.09;100.00;103655.25;5032476;28;19964;-67
2023/02/13 07:07:40;;;;;;;;;;;;;;;8.09;100.00;103664.88;5026925;28;19921;-67
2023/02/13 07:10:07;;;;;;;;;;;;;;;8.11;100.00;103663.94;5033715;28;19924;-67
2023/02/13 07:12:35;;;;;;;;;;;;;;;8.12;100.00;103660.38;5034042;28;20345;-67
2023/02/13 07:15:05;;;;;;;;;;;;;;;8.11;100.00;103669.16;5031505;28;19939;-67
2023/02/13 07:17:32;;;;;;;;;;;;;;;8.15;100.00;103669.00;5038350;28;19929;-66
2023/02/13 07:19:59;;;;;;;;;;;;;;;8.13;100.00;103666.44;5027264;28;19932;-66
2023/02/13 07:22:25;;;;;;;;;;;;;;;8.15;100.00;103672.47;5025172;28;21023;-66
2023/02/13 07:24:51;;;;;;;;;;;;;;;8.15;100.00;103667.25;5023512;28;19920;-65
2023/02/13 07:27:18;;;;;;;;;;;;;;;8.16;100.00;103670.72;5037842;28;20424;-66
2023/02/13 07:29:47;;;;;;;;;;;;;;;8.16;100.00;103674.19;5037273;28;20262;-66
2023/02/13 07:32:14;;;;;;;;;;;;;;;8.19;100.00;103667.97;5036465;28;19921;-66
2023/02/13 07:34:40;;;;;;;;;;;;;;;8.18;100.00;103668.91;5033455;28;20565;-66
2023/02/13 07:37:26;;;;;;;;;;;;;;;8.21;100.00;103681.84;5033565;28;19972;-66
2023/02/13 07:39:52;;;;;;;;;;;;;;;8.21;100.00;103674.00;5040251;28;19935;-65
2023/02/13 07:42:19;;;;;;;;;;;;;;;8.20;100.00;103686.22;5027339;28;19925;-66
2023/02/13 07:44:45;;;;;;;;;;;;;;;8.21;100.00;103682.72;5031424;28;19925;-66
2023/02/13 07:47:12;;;;;;;;;;;;;;;8.22;100.00;103687.00;5030590;28;20402;-66
2023/02/13 07:49:38;;;;;;;;;;;;;;;8.27;100.00;103690.31;5041514;28;19929;-67
2023/02/13 07:52:04;;;;;;;;;;;;;;;8.24;100.00;103685.19;5039334;28;19921;-66
2023/02/13 07:54:31;;;;;;;;;;;;;;;8.25;100.00;103689.53;5034635;28;19929;-67
2023/02/13 07:56:57;;;;;;;;;;;;;;;8.27;100.00;103690.31;5036836;28;19936;-68
2023/02/13 07:59:24;;;;;;;;;;;;;;;8.29;100.00;103687.59;5034037;28;19920;-68
2023/02/13 08:01:50;;;;;;;;;;;;;;;8.31;100.00;103691.00;5023986;28;19925;-67
2023/02/13 08:04:17;;;;;;;;;;;;;;;8.28;100.00;103694.63;5032613;28;19924;-67
2023/02/13 08:06:43;;;;;;;;;;;;;;;8.34;100.00;103693.53;5031910;28;19932;-67
2023/02/13 08:12:04;;;;;;;;;;;;;;;8.42;100.00;103695.88;5023283;28;19960;-67
2023/02/13 08:14:31;;;;;;;;;;;;;;;8.44;100.00;103701.88;5037187;28;19979;-67
2023/02/13 08:16:57;;;;;;;;;;;;;;;8.44;100.00;103683.56;5018469;28;19921;-67
2023/02/13 08:19:24;;;;;;;;;;;;;;;8.43;100.00;103693.19;5031067;28;19944;-67
2023/02/13 08:21:50;;;;;;;;;;;;;;;8.44;100.00;103686.19;5028580;28;19931;-67
2023/02/13 08:24:16;;;;;;;;;;;;;;;8.46;100.00;103685.19;5034383;28;19920;-67
2023/02/13 08:26:43;;;;;;;;;;;;;;;8.43;100.00;103689.72;5037032;28;19924;-67
2023/02/13 08:29:10;;;;;;;;;;;;;;;8.41;100.00;103691.50;5026988;28;20011;-66
2023/02/13 08:31:36;;;;;;;;;;;;;;;8.40;100.00;103692.44;5031560;28;19947;-67
2023/02/13 08:34:03;;;;;;;;;;;;;;;8.41;100.00;103691.50;5023485;28;19956;-66
2023/02/13 08:36:29;;;;;;;;;;;;;;;8.38;100.00;103700.34;5029457;28;20385;-66
2023/02/13 08:38:56;;;;;;;;;;;;;;;8.42;100.00;103701.09;5023511;28;19920;-66
2023/02/13 08:41:22;;;;;;;;;;;;;;;8.39;100.00;103699.44;5034651;28;19935;-67
2023/02/13 08:43:49;;;;;;;;;;;;;;;8.42;100.00;103701.94;5028658;28;19952;-67
2023/02/13 08:46:16;;;;;;;;;;;;;;;8.41;100.00;103704.56;5029548;28;20355;-68
2023/02/13 08:48:42;;;;;;;;;;;;;;;8.41;100.00;103701.97;5042043;28;19929;-67
2023/02/13 08:51:10;;;;;;;;;;;;;;;8.42;100.00;103703.72;5037529;28;19931;-67
2023/02/13 08:53:37;;;;;;;;;;;;;;;8.43;100.00;103708.03;5037289;28;19921;-67
2023/02/13 08:56:04;;;;;;;;;;;;;;;8.41;100.00;103708.09;5035887;28;19935;-67
2023/02/13 08:58:30;;;;;;;;;;;;;;;8.47;100.00;103709.63;5031114;28;20480;-67
2023/02/13 09:00:57;;;;;;;;;;;;;;;8.50;100.00;103709.47;5036917;28;20385;-67
2023/02/13 09:03:23;;;;;;;;;;;;;;;8.51;100.00;103708.59;5027488;28;20369;-67
2023/02/13 09:05:50;;;;;;;;;;;;;;;8.52;100.00;103710.28;5038192;28;19924;-67
2023/02/13 09:08:16;;;;;;;;;;;;;;;8.60;100.00;103709.97;5018040;28;19932;-67
2023/02/13 09:10:44;;;;;;;;;;;;;;;8.65;100.00;103708.03;5034189;28;19925;-66
2023/02/13 09:13:10;;;;;;;;;;;;;;;8.71;100.00;103705.16;5024481;28;20395;-67
2023/02/13 09:15:39;;;;;;;;;;;;;;;8.77;100.00;103699.66;5036450;28;19920;-67
2023/02/13 09:18:05;;;;;;;;;;;;;;;8.76;100.00;103710.19;5029830;28;19928;-67
2023/02/13 09:20:32;;;;;;;;;;;;;;;8.77;100.00;103704.03;5031148;28;19932;-67
2023/02/13 09:23:01;;;;;;;;;;;;;;;8.83;100.00;103704.63;5032227;28;20079;-67
2023/02/13 09:25:27;;;;;;;;;;;;;;;8.87;100.00;103703.56;5025734;28;19921;-67
2023/02/13 09:27:53;;;;;;;;;;;;;;;8.87;100.00;103697.50;5038734;28;19929;-67
2023/02/13 09:30:22;;;;;;;;;;;;;;;8.93;100.00;103701.63;5035290;28;20345;-67
2023/02/13 09:32:50;;;;;;;;;;;;;;;8.99;100.00;103696.13;5040291;28;19936;-68
2023/02/13 09:35:17;;;;;;;;;;;;;;;9.06;100.00;103708.03;5045991;28;20155;-67
2023/02/13 09:37:44;;;;;;;;;;;;;;;9.07;100.00;103709.72;5026531;28;20007;-67
2023/02/13 09:40:19;;;;;;;;;;;;;;;9.14;100.00;103710.34;5034728;28;19924;-67
2023/02/13 09:42:46;;;;;;;;;;;;;;;9.21;100.00;103711.75;5025262;28;19921;-67
2023/02/13 09:45:13;;;;;;;;;;;;;;;9.24;100.00;103720.34;5036148;28;19935;-67
2023/02/13 09:47:40;;;;;;;;;;;;;;;9.28;100.00;103710.59;5049718;28;19932;-67
2023/02/13 09:50:24;;;;;;;;;;;;;;;9.34;100.00;103709.47;5025311;28;19927;-67
2023/02/13 09:52:52;;;;;;;;;;;;;;;9.47;100.00;103706.22;5038435;28;19924;-67
2023/02/13 09:55:21;;;;;;;;;;;;;;;9.38;100.00;103711.03;5025298;28;19932;-67
2023/02/13 09:57:52;;;;;;;;;;;;;;;9.42;100.00;103707.34;5030299;28;20301;-67
2023/02/13 10:00:21;;;;;;;;;;;;;;;9.35;100.00;103716.38;5035536;28;20377;-67
2023/02/13 10:02:53;;;;;;;;;;;;;;;9.40;100.00;103712.66;5038325;28;19952;-68
2023/02/13 10:05:38;;;;;;;;;;;;;;;9.45;100.00;103708.06;5026083;28;19925;-67
2023/02/13 10:08:23;;;;;;;;;;;;;;;9.39;100.00;103703.09;5036884;28;19925;-68
2023/02/13 10:11:03;;;;;;;;;;;;;;;9.44;100.00;103702.88;5029334;28;19931;-68
2023/02/13 10:13:39;;;;;;;;;;;;;;;9.50;100.00;103700.84;5027345;28;19935;-67
2023/02/13 10:16:06;;;;;;;;;;;;;;;9.56;100.00;103701.50;5041021;28;20015;-67
2023/02/13 10:18:41;;;;;;;;;;;;;;;9.60;100.00;103693.41;5026705;28;19929;-67
2023/02/13 10:21:10;;;;;;;;;;;;;;;9.65;100.00;103704.53;5033660;28;19925;-67
2023/02/13 10:23:39;;;;;;;;;;;;;;;9.64;100.00;103702.00;5024444;28;19925;-67
2023/02/13 10:26:10;;;;;;;;;;;;;;;9.66;100.00;103700.16;5029549;28;20585;-67
2023/02/13 10:28:45;;;;;;;;;;;;;;;9.73;100.00;103698.97;5036999;28;19924;-68
2023/02/13 10:31:18;;;;;;;;;;;;;;;9.80;100.00;103697.75;5039216;28;19925;-68
2023/02/13 10:33:51;;;;;;;;;;;;;;;9.92;100.00;103701.59;5015287;28;20440;-69
2023/02/13 10:36:21;;;;;;;;;;;;;;;9.96;100.00;103708.38;5042672;28;19921;-69
2023/02/13 10:39:01;;;;;;;;;;;;;;;9.94;100.00;103709.34;5035113;28;19955;-68
2023/02/13 10:41:47;;;;;;;;;;;;;;;10.05;100.00;103699.22;5024958;28;19928;-69
2023/02/13 10:44:32;;;;;;;;;;;;;;;10.15;100.00;103697.84;5042180;28;19935;-68
2023/02/13 10:47:20;;;;;;;;;;;;;;;10.27;100.00;103709.53;5024756;28;19924;-69
2023/02/13 10:50:12;;;;;;;;;;;;;;;10.38;100.00;103701.19;5042337;28;19921;-68
2023/02/13 10:52:58;;;;;;;;;;;;;;;10.48;100.00;103699.81;5025593;28;19965;-70
2023/02/13 10:55:24;;;;;;;;;;;;;;;10.58;100.00;103693.19;5031577;28;19933;-68
2023/02/13 10:57:52;;;;;;;;;;;;;;;10.66;100.00;103690.16;5022149;28;19936;-68
2023/02/13 11:00:41;;;;;;;;;;;;;;;10.64;100.00;103682.41;5034593;28;20370;-69
2023/02/13 11:03:16;;;;;;;;;;;;;;;10.82;100.00;103683.25;5014427;28;20016;-68
2023/02/13 11:05:42;;;;;;;;;;;;;;;10.97;100.00;103680.75;5040261;28;19956;-68
2023/02/13 11:08:15;;;;;;;;;;;;;;;11.02;100.00;103674.34;5029601;28;19932;-68
2023/02/13 11:10:41;;;;;;;;;;;;;;;11.04;100.00;103680.34;5033294;28;19933;-68
2023/02/13 11:13:18;;;;;;;;;;;;;;;11.11;100.00;103674.78;5038882;28;19971;-68
2023/02/13 11:15:59;;;;;;;;;;;;;;;11.17;100.00;103669.19;5027121;28;20419;-69
2023/02/13 11:18:27;;;;;;;;;;;;;;;11.27;100.00;103668.66;5040570;28;19967;-69
2023/02/13 11:21:02;;;;;;;;;;;;;;;11.31;100.00;103663.22;5033533;28;19932;-68
2023/02/13 11:23:29;;;;;;;;;;;;;;;11.42;100.00;103660.88;5033112;28;19927;-68
2023/02/13 11:26:00;;;;;;;;;;;;;;;11.52;100.00;103655.97;5030310;28;19924;-69
2023/02/13 11:28:28;;;;;;;;;;;;;;;11.68;100.00;103646.28;5024671;28;20445;-68
2023/02/13 11:31:08;;;;;;;;;;;;;;;11.85;100.00;103642.72;5020673;28;20643;-68
2023/02/13 11:33:35;;;;;;;;;;;;;;;11.97;100.00;103646.50;5036428;28;19928;-68
2023/02/13 11:36:06;;;;;;;;;;;;;;;12.07;99.44;103650.28;5043013;28;20423;-68
2023/02/13 11:38:32;;;;;;;;;;;;;;;12.15;97.39;103642.84;5027861;28;19948;-68
2023/02/13 11:41:04;;;;;;;;;;;;;;;12.18;95.19;103636.53;5034758;28;20332;-69
2023/02/13 11:43:36;;;;;;;;;;;;;;;12.28;95.94;103632.44;5020963;28;19925;-69
2023/02/13 11:46:19;;;;;;;;;;;;;;;12.50;98.59;103639.06;5030516;28;20377;-69
2023/02/13 11:49:03;;;;;;;;;;;;;;;12.59;93.72;103649.06;5018451;28;19925;-69
2023/02/13 11:51:41;;;;;;;;;;;;;;;12.68;95.43;103635.34;5037880;28;20362;-69
2023/02/13 11:54:28;;;;;;;;;;;;;;;12.65;92.56;103638.16;5026789;28;19924;-69
2023/02/13 11:56:56;;;;;;;;;;;;;;;12.73;91.47;103635.94;5033338;28;19979;-69
2023/02/13 11:59:39;;;;;;;;;;;;;;;12.81;90.21;103632.84;5022925;28;20613;-69
2023/02/13 12:02:14;;;;;;;;;;;;;;;12.95;92.17;103646.00;5038992;28;19952;-68
2023/02/13 12:04:41;;;;;;;;;;;;;;;12.94;87.07;103635.59;5032665;28;19933;-69
2023/02/13 12:07:13;;;;;;;;;;;;;;;13.11;91.54;103632.75;5025433;28;19921;-69
2023/02/13 12:09:40;;;;;;;;;;;;;;;13.19;90.65;103624.38;5032025;28;19924;-69
2023/02/13 12:12:12;;;;;;;;;;;;;;;13.16;83.98;103622.78;5034017;28;19924;-69
2023/02/13 12:14:41;;;;;;;;;;;;;;;13.28;88.04;103622.97;5035027;28;20537;-69
2023/02/13 12:17:13;;;;;;;;;;;;;;;13.39;85.39;103618.75;5026814;28;19927;-69
2023/02/13 12:19:55;;;;;;;;;;;;;;;13.52;85.93;103617.97;5027708;28;19921;-69
2023/02/13 12:22:30;;;;;;;;;;;;;;;13.56;83.90;103616.81;5031708;28;19921;-69
2023/02/13 12:25:17;;;;;;;;;;;;;;;13.74;84.15;103618.28;5022969;28;19929;-69
2023/02/13 12:27:50;;;;;;;;;;;;;;;13.74;83.78;103618.28;5036062;28;20019;-69
2023/02/13 12:30:22;;;;;;;;;;;;;;;13.71;84.14;103615.00;5039032;28;20366;-69
2023/02/13 12:33:02;;;;;;;;;;;;;;;13.86;85.49;103614.00;5047578;28;20019;-69
2023/02/13 12:35:35;;;;;;;;;;;;;;;13.96;82.33;103604.53;5047260;28;19920;-69
2023/02/13 12:38:07;;;;;;;;;;;;;;;14.00;79.93;103608.66;5042479;28;20017;-69
2023/02/13 12:40:56;;;;;;;;;;;;;;;14.02;79.56;103603.28;5031013;28;19938;-69
2023/02/13 12:43:49;;;;;;;;;;;;;;;13.99;79.35;103598.19;5047907;28;19921;-69
2023/02/13 12:46:15;;;;;;;;;;;;;;;14.04;82.58;103602.22;5020755;28;20012;-69
2023/02/13 12:48:55;;;;;;;;;;;;;;;14.07;77.68;103598.53;5032535;28;19928;-69
2023/02/13 12:51:41;;;;;;;;;;;;;;;14.11;78.50;103591.28;5031331;28;19929;-69
2023/02/13 12:54:17;;;;;;;;;;;;;;;13.94;77.94;103587.13;5043637;28;19927;-69
2023/02/13 12:56:58;;;;;;;;;;;;;;;14.20;84.48;103578.31;5048320;28;20270;-69
2023/02/13 12:59:32;;;;;;;;;;;;;;;14.17;78.52;103577.66;5031718;28;19928;-69
2023/02/13 13:02:03;;;;;;;;;;;;;;;14.24;76.39;103576.31;5036487;28;19921;-69
2023/02/13 13:04:29;;;;;;;;;;;;;;;14.06;74.28;103574.91;5027491;28;19971;-69
2023/02/13 13:07:14;;;;;;;;;;;;;;;14.08;76.05;103573.84;5035763;28;20377;-69
2023/02/13 13:09:51;;;;;;;;;;;;;;;14.10;77.07;103561.41;5025427;28;20465;-69
2023/02/13 13:12:36;;;;;;;;;;;;;;;14.23;79.14;103564.06;5034608;28;20313;-69
2023/02/13 13:15:10;;;;;;;;;;;;;;;14.21;76.74;103571.22;5024495;28;20568;-69
2023/02/13 13:17:37;;;;;;;;;;;;;;;14.12;75.34;103563.94;5040722;28;20713;-69
2023/02/13 13:20:21;;;;;;;;;;;;;;;14.41;76.44;103562.81;5033648;28;20435;-69
2023/02/13 13:22:57;;;;;;;;;;;;;;;14.53;75.58;103561.13;5024652;28;19920;-69
2023/02/13 13:25:24;;;;;;;;;;;;;;;14.62;74.77;103557.88;5032464;28;20019;-69
2023/02/13 13:28:17;;;;;;;;;;;;;;;14.75;77.91;103555.22;5035372;28;20355;-69
2023/02/13 13:30:44;;;;;;;;;;;;;;;14.86;75.32;103550.97;5028163;28;19991;-69